BAW2WG EBBR-EGKK
Flight info
| Callsign | BAW2WG |
|---|---|
| Flight time | 0h 44m |
| Altitude | 26000 |
| Route | DENUT L610 TEBRA |
| Aircraft | B77W/H-V/N |
Departure
| Time | 2026-05-06 19:49 |
|---|---|
| Airport | Brussels Airport (EBBR) |
Arrival
| Time | 2026-05-06 20:33 |
|---|---|
| Airport | London Gatwick Airport (EGKK) |
| Time | Latitude | Longitude | Altitude | Speed | Heading |
|---|---|---|---|---|---|
| 2026-05-06 19:21 | 50.89713 | 4.49049 | 164 ft | 0 kts | 335° |
| 2026-05-06 19:29 | 50.89713 | 4.49050 | 164 ft | 0 kts | 335° |
| 2026-05-06 19:36 | 50.89708 | 4.49053 | 164 ft | 2 kts | 335° |
| 2026-05-06 19:37 | 50.89693 | 4.49064 | 165 ft | 2 kts | 335° |
| 2026-05-06 19:37 | 50.89678 | 4.49075 | 165 ft | 2 kts | 335° |
| 2026-05-06 19:37 | 50.89663 | 4.49086 | 165 ft | 2 kts | 338° |
| 2026-05-06 19:37 | 50.89647 | 4.49089 | 166 ft | 2 kts | 38° |
| 2026-05-06 19:38 | 50.89635 | 4.49071 | 166 ft | 2 kts | 53° |
| 2026-05-06 19:38 | 50.89628 | 4.49048 | 166 ft | 2 kts | 76° |
| 2026-05-06 19:38 | 50.89625 | 4.49022 | 165 ft | 2 kts | 82° |
| 2026-05-06 19:38 | 50.89623 | 4.48996 | 165 ft | 2 kts | 83° |
| 2026-05-06 19:39 | 50.89622 | 4.48983 | 164 ft | 0 kts | 83° |
| 2026-05-06 19:39 | 50.89622 | 4.48982 | 164 ft | 0 kts | 83° |
| 2026-05-06 19:44 | 50.89624 | 4.49009 | 165 ft | 6 kts | 83° |
| 2026-05-06 19:44 | 50.89600 | 4.49062 | 166 ft | 7 kts | 167° |
| 2026-05-06 19:44 | 50.89519 | 4.49048 | 167 ft | 17 kts | 191° |
| 2026-05-06 19:44 | 50.89401 | 4.49014 | 169 ft | 0 kts | 184° |
| 2026-05-06 19:45 | 50.89380 | 4.49008 | 170 ft | 6 kts | 195° |
| 2026-05-06 19:45 | 50.89317 | 4.48960 | 172 ft | 14 kts | 226° |
| 2026-05-06 19:45 | 50.89269 | 4.48780 | 174 ft | 22 kts | 250° |
| 2026-05-06 19:45 | 50.89209 | 4.48522 | 177 ft | 29 kts | 249° |
| 2026-05-06 19:46 | 50.89141 | 4.48232 | 180 ft | 25 kts | 250° |
| 2026-05-06 19:46 | 50.89081 | 4.47977 | 181 ft | 25 kts | 245° |
| 2026-05-06 19:46 | 50.89063 | 4.47936 | 181 ft | 0 kts | 231° |
| 2026-05-06 19:46 | 50.89062 | 4.47934 | 181 ft | 1 kts | 226° |
| 2026-05-06 19:47 | 50.89046 | 4.47920 | 181 ft | 5 kts | 205° |
| 2026-05-06 19:47 | 50.88995 | 4.47915 | 180 ft | 10 kts | 169° |
| 2026-05-06 19:47 | 50.88940 | 4.48021 | 177 ft | 16 kts | 106° |
| 2026-05-06 19:47 | 50.88943 | 4.48197 | 177 ft | 6 kts | 71° |
| 2026-05-06 19:48 | 50.88944 | 4.48198 | 177 ft | 0 kts | 71° |
| 2026-05-06 19:48 | 50.88951 | 4.48232 | 177 ft | 15 kts | 69° |
| 2026-05-06 19:48 | 50.89104 | 4.48891 | 177 ft | 116 kts | 69° |
| 2026-05-06 19:49 | 50.89475 | 4.50519 | 410 ft | 183 kts | 69° |
| 2026-05-06 19:49 | 50.89909 | 4.52427 | 1567 ft | 181 kts | 66° |
| 2026-05-06 19:49 | 50.90492 | 4.54190 | 2449 ft | 191 kts | 43° |
| 2026-05-06 19:49 | 50.91759 | 4.55085 | 2753 ft | 220 kts | 0° |
| 2026-05-06 19:50 | 50.93283 | 4.54276 | 3243 ft | 246 kts | 322° |
| 2026-05-06 19:50 | 50.94394 | 4.52158 | 4190 ft | 255 kts | 303° |
| 2026-05-06 19:50 | 50.95270 | 4.49693 | 5203 ft | 258 kts | 300° |
| 2026-05-06 19:50 | 50.96110 | 4.47140 | 5844 ft | 264 kts | 299° |
| 2026-05-06 19:51 | 50.96959 | 4.44537 | 5929 ft | 269 kts | 299° |
| 2026-05-06 19:51 | 50.97822 | 4.41911 | 5948 ft | 267 kts | 299° |
| 2026-05-06 19:51 | 50.98685 | 4.39311 | 5930 ft | 265 kts | 300° |
| 2026-05-06 19:51 | 50.99548 | 4.36737 | 6043 ft | 265 kts | 300° |
| 2026-05-06 19:52 | 51.00422 | 4.34151 | 6878 ft | 268 kts | 300° |
| 2026-05-06 19:52 | 51.01310 | 4.31536 | 7866 ft | 271 kts | 300° |
| 2026-05-06 19:52 | 51.02214 | 4.28883 | 8826 ft | 276 kts | 300° |
| 2026-05-06 19:52 | 51.03052 | 4.26119 | 9719 ft | 282 kts | 292° |
| 2026-05-06 19:53 | 51.03679 | 4.23122 | 10503 ft | 292 kts | 288° |
| 2026-05-06 19:53 | 51.04277 | 4.19886 | 10862 ft | 320 kts | 287° |
| 2026-05-06 19:53 | 51.04922 | 4.16321 | 11092 ft | 351 kts | 287° |
| 2026-05-06 19:53 | 51.05623 | 4.12477 | 11718 ft | 367 kts | 287° |
| 2026-05-06 19:54 | 51.06348 | 4.08546 | 12746 ft | 373 kts | 287° |
| 2026-05-06 19:54 | 51.07091 | 4.04569 | 13861 ft | 378 kts | 287° |
| 2026-05-06 19:54 | 51.07852 | 4.00534 | 14840 ft | 383 kts | 287° |
| 2026-05-06 19:54 | 51.08628 | 3.96444 | 15784 ft | 389 kts | 287° |
| 2026-05-06 19:55 | 51.09405 | 3.92363 | 16753 ft | 394 kts | 287° |
| 2026-05-06 19:55 | 51.10206 | 3.88155 | 17656 ft | 401 kts | 287° |
| 2026-05-06 19:55 | 51.11019 | 3.83882 | 18559 ft | 406 kts | 287° |
| 2026-05-06 19:55 | 51.11841 | 3.79554 | 19401 ft | 411 kts | 287° |
| 2026-05-06 19:56 | 51.12671 | 3.75179 | 20246 ft | 415 kts | 286° |
| 2026-05-06 19:56 | 51.13506 | 3.70760 | 21114 ft | 418 kts | 286° |
| 2026-05-06 19:56 | 51.14346 | 3.66307 | 21966 ft | 422 kts | 286° |
| 2026-05-06 19:56 | 51.15186 | 3.61845 | 23009 ft | 420 kts | 286° |
| 2026-05-06 19:57 | 51.16024 | 3.57383 | 23808 ft | 420 kts | 285° |
| 2026-05-06 19:57 | 51.16857 | 3.52936 | 23953 ft | 419 kts | 285° |
| 2026-05-06 19:57 | 51.17686 | 3.48501 | 23956 ft | 417 kts | 285° |
| 2026-05-06 19:57 | 51.18513 | 3.44068 | 23958 ft | 416 kts | 285° |
| 2026-05-06 19:58 | 51.19334 | 3.39650 | 23960 ft | 416 kts | 285° |
| 2026-05-06 19:58 | 51.20155 | 3.35223 | 23964 ft | 417 kts | 285° |
| 2026-05-06 19:58 | 51.20976 | 3.30787 | 23967 ft | 417 kts | 285° |
| 2026-05-06 19:58 | 51.21795 | 3.26349 | 23966 ft | 417 kts | 285° |
| 2026-05-06 19:59 | 51.22612 | 3.21913 | 23967 ft | 417 kts | 285° |
| 2026-05-06 19:59 | 51.23428 | 3.17475 | 23968 ft | 417 kts | 285° |
| 2026-05-06 19:59 | 51.24241 | 3.13036 | 23965 ft | 417 kts | 285° |
| 2026-05-06 19:59 | 51.25053 | 3.08593 | 23967 ft | 417 kts | 285° |
| 2026-05-06 20:00 | 51.25864 | 3.04147 | 23966 ft | 417 kts | 285° |
| 2026-05-06 20:00 | 51.26672 | 2.99709 | 23968 ft | 417 kts | 285° |
| 2026-05-06 20:00 | 51.27469 | 2.95319 | 23967 ft | 416 kts | 285° |
| 2026-05-06 20:00 | 51.28283 | 2.90820 | 23968 ft | 416 kts | 285° |
| 2026-05-06 20:01 | 51.29086 | 2.86379 | 23966 ft | 416 kts | 284° |
| 2026-05-06 20:01 | 51.29876 | 2.81989 | 23966 ft | 416 kts | 284° |
| 2026-05-06 20:01 | 51.30675 | 2.77549 | 23968 ft | 416 kts | 284° |
| 2026-05-06 20:01 | 51.31470 | 2.73114 | 23968 ft | 415 kts | 284° |
| 2026-05-06 20:02 | 51.32264 | 2.68672 | 23973 ft | 415 kts | 284° |
| 2026-05-06 20:02 | 51.33056 | 2.64236 | 23974 ft | 415 kts | 284° |
| 2026-05-06 20:02 | 51.33846 | 2.59798 | 23977 ft | 415 kts | 284° |
| 2026-05-06 20:02 | 51.34634 | 2.55357 | 23977 ft | 415 kts | 284° |
| 2026-05-06 20:03 | 51.35421 | 2.50913 | 23980 ft | 415 kts | 284° |
| 2026-05-06 20:03 | 51.36207 | 2.46464 | 23982 ft | 416 kts | 284° |
| 2026-05-06 20:03 | 51.36988 | 2.42035 | 23806 ft | 412 kts | 284° |
| 2026-05-06 20:03 | 51.37761 | 2.37643 | 23347 ft | 408 kts | 284° |
| 2026-05-06 20:04 | 51.38522 | 2.33302 | 22860 ft | 402 kts | 284° |
| 2026-05-06 20:04 | 51.39270 | 2.29028 | 22330 ft | 397 kts | 285° |
| 2026-05-06 20:04 | 51.39999 | 2.24850 | 21758 ft | 394 kts | 285° |
| 2026-05-06 20:04 | 51.40742 | 2.20580 | 21200 ft | 391 kts | 285° |
| 2026-05-06 20:05 | 51.41467 | 2.16404 | 20673 ft | 388 kts | 285° |
| 2026-05-06 20:05 | 51.42188 | 2.12244 | 20128 ft | 385 kts | 285° |
| 2026-05-06 20:05 | 51.42900 | 2.08134 | 19646 ft | 382 kts | 285° |
| 2026-05-06 20:05 | 51.43595 | 2.04105 | 19151 ft | 379 kts | 285° |
| 2026-05-06 20:06 | 51.44285 | 2.00049 | 18675 ft | 376 kts | 284° |
| 2026-05-06 20:06 | 51.44862 | 1.95925 | 18158 ft | 373 kts | 281° |
| 2026-05-06 20:06 | 51.45364 | 1.91858 | 17604 ft | 371 kts | 281° |
| 2026-05-06 20:06 | 51.45859 | 1.87818 | 17077 ft | 368 kts | 281° |
| 2026-05-06 20:07 | 51.46321 | 1.83909 | 16571 ft | 365 kts | 280° |
| 2026-05-06 20:07 | 51.46781 | 1.79866 | 16056 ft | 363 kts | 280° |
| 2026-05-06 20:07 | 51.47228 | 1.75901 | 15563 ft | 360 kts | 280° |
| 2026-05-06 20:07 | 51.47676 | 1.71965 | 15063 ft | 358 kts | 281° |
| 2026-05-06 20:08 | 51.48122 | 1.68049 | 14585 ft | 355 kts | 281° |
| 2026-05-06 20:08 | 51.48562 | 1.64170 | 14173 ft | 350 kts | 279° |
| 2026-05-06 20:08 | 51.48628 | 1.60310 | 14018 ft | 349 kts | 262° |
| 2026-05-06 20:08 | 51.47933 | 1.56556 | 14008 ft | 353 kts | 250° |
| 2026-05-06 20:09 | 51.47042 | 1.52869 | 14008 ft | 356 kts | 250° |
| 2026-05-06 20:09 | 51.46147 | 1.49146 | 14011 ft | 359 kts | 250° |
| 2026-05-06 20:09 | 51.45263 | 1.45408 | 14005 ft | 359 kts | 249° |
| 2026-05-06 20:09 | 51.44165 | 1.41817 | 13939 ft | 358 kts | 240° |
| 2026-05-06 20:10 | 51.42809 | 1.38501 | 13599 ft | 357 kts | 237° |
| 2026-05-06 20:10 | 51.41407 | 1.35208 | 13197 ft | 357 kts | 237° |
| 2026-05-06 20:10 | 51.40010 | 1.31940 | 12870 ft | 355 kts | 237° |
| 2026-05-06 20:10 | 51.38620 | 1.28683 | 12565 ft | 353 kts | 237° |
| 2026-05-06 20:11 | 51.37241 | 1.25443 | 12253 ft | 351 kts | 237° |
| 2026-05-06 20:11 | 51.35869 | 1.22211 | 11930 ft | 350 kts | 237° |
| 2026-05-06 20:11 | 51.34505 | 1.18996 | 11630 ft | 349 kts | 237° |
| 2026-05-06 20:11 | 51.33145 | 1.15788 | 11330 ft | 347 kts | 237° |
| 2026-05-06 20:12 | 51.31794 | 1.12602 | 11091 ft | 345 kts | 237° |
| 2026-05-06 20:12 | 51.30462 | 1.09463 | 11035 ft | 336 kts | 237° |
| 2026-05-06 20:12 | 51.29175 | 1.06436 | 10991 ft | 322 kts | 237° |
| 2026-05-06 20:12 | 51.27897 | 1.03427 | 11027 ft | 341 kts | 237° |
| 2026-05-06 20:13 | 51.26542 | 1.00239 | 11015 ft | 350 kts | 237° |
| 2026-05-06 20:13 | 51.25169 | 0.97014 | 11005 ft | 350 kts | 237° |
| 2026-05-06 20:13 | 51.23806 | 0.93820 | 11001 ft | 347 kts | 237° |
| 2026-05-06 20:13 | 51.22447 | 0.90639 | 11003 ft | 346 kts | 237° |
| 2026-05-06 20:14 | 51.21093 | 0.87473 | 10989 ft | 344 kts | 237° |
| 2026-05-06 20:14 | 51.19747 | 0.84331 | 11012 ft | 343 kts | 237° |
| 2026-05-06 20:14 | 51.18399 | 0.81188 | 11012 ft | 343 kts | 237° |
| 2026-05-06 20:14 | 51.17070 | 0.78091 | 10984 ft | 343 kts | 237° |
| 2026-05-06 20:15 | 51.15724 | 0.74958 | 10980 ft | 344 kts | 237° |
| 2026-05-06 20:15 | 51.14370 | 0.71811 | 10981 ft | 344 kts | 237° |
| 2026-05-06 20:15 | 51.13019 | 0.68675 | 10972 ft | 339 kts | 237° |
| 2026-05-06 20:15 | 51.11715 | 0.65655 | 10969 ft | 324 kts | 237° |
| 2026-05-06 20:16 | 51.10468 | 0.62769 | 10944 ft | 308 kts | 237° |
| 2026-05-06 20:16 | 51.09282 | 0.60027 | 10949 ft | 294 kts | 237° |
| 2026-05-06 20:16 | 51.08153 | 0.57419 | 10967 ft | 280 kts | 237° |
| 2026-05-06 20:16 | 51.07050 | 0.54869 | 10914 ft | 280 kts | 237° |
| 2026-05-06 20:17 | 51.06305 | 0.53150 | 10770 ft | 279 kts | 237° |
| 2026-05-06 20:17 | 51.05222 | 0.50650 | 10491 ft | 278 kts | 237° |
| 2026-05-06 20:17 | 51.04130 | 0.48133 | 10208 ft | 275 kts | 237° |
| 2026-05-06 20:17 | 51.03043 | 0.45632 | 9895 ft | 274 kts | 237° |
| 2026-05-06 20:18 | 51.01963 | 0.43148 | 9564 ft | 273 kts | 237° |
| 2026-05-06 20:18 | 51.01233 | 0.41471 | 9332 ft | 272 kts | 237° |
| 2026-05-06 20:18 | 51.00202 | 0.39101 | 9062 ft | 269 kts | 236° |
| 2026-05-06 20:18 | 50.99159 | 0.36710 | 9016 ft | 262 kts | 237° |
| 2026-05-06 20:19 | 50.98112 | 0.34309 | 8985 ft | 266 kts | 236° |
| 2026-05-06 20:19 | 50.97267 | 0.32375 | 8988 ft | 271 kts | 236° |
| 2026-05-06 20:19 | 50.96204 | 0.29946 | 8973 ft | 264 kts | 236° |
| 2026-05-06 20:19 | 50.95245 | 0.27558 | 8962 ft | 249 kts | 249° |
| 2026-05-06 20:20 | 50.94998 | 0.24908 | 8993 ft | 243 kts | 276° |
| 2026-05-06 20:20 | 50.95409 | 0.22313 | 8996 ft | 244 kts | 290° |
| 2026-05-06 20:20 | 50.95999 | 0.19780 | 8990 ft | 247 kts | 291° |
| 2026-05-06 20:20 | 50.96609 | 0.17226 | 8997 ft | 248 kts | 291° |
| 2026-05-06 20:21 | 50.97220 | 0.14666 | 8994 ft | 249 kts | 291° |
| 2026-05-06 20:21 | 50.97617 | 0.12029 | 9007 ft | 245 kts | 276° |
| 2026-05-06 20:21 | 50.97693 | 0.09335 | 8826 ft | 245 kts | 272° |
| 2026-05-06 20:21 | 50.97710 | 0.06637 | 8556 ft | 243 kts | 271° |
| 2026-05-06 20:22 | 50.97720 | 0.03961 | 8261 ft | 242 kts | 271° |
| 2026-05-06 20:22 | 50.97728 | 0.01315 | 8085 ft | 236 kts | 271° |
| 2026-05-06 20:22 | 50.97732 | -0.01216 | 8012 ft | 232 kts | 271° |
| 2026-05-06 20:22 | 50.97737 | -0.03843 | 8027 ft | 239 kts | 271° |
| 2026-05-06 20:23 | 50.97742 | -0.06479 | 8034 ft | 244 kts | 271° |
| 2026-05-06 20:23 | 50.97746 | -0.09167 | 7903 ft | 243 kts | 271° |
| 2026-05-06 20:23 | 50.97750 | -0.11841 | 7672 ft | 241 kts | 271° |
| 2026-05-06 20:23 | 50.97753 | -0.14474 | 7430 ft | 237 kts | 271° |
| 2026-05-06 20:24 | 50.97754 | -0.17098 | 7091 ft | 239 kts | 271° |
| 2026-05-06 20:24 | 50.97755 | -0.19726 | 6816 ft | 237 kts | 271° |
| 2026-05-06 20:24 | 50.97764 | -0.22331 | 6540 ft | 233 kts | 275° |
| 2026-05-06 20:24 | 50.98107 | -0.24842 | 6105 ft | 236 kts | 289° |
| 2026-05-06 20:25 | 50.98641 | -0.27278 | 5864 ft | 232 kts | 290° |
| 2026-05-06 20:25 | 50.99191 | -0.29684 | 5513 ft | 234 kts | 290° |
| 2026-05-06 20:25 | 50.99753 | -0.32132 | 5118 ft | 238 kts | 291° |
| 2026-05-06 20:25 | 51.00341 | -0.34619 | 4671 ft | 244 kts | 291° |
| 2026-05-06 20:26 | 51.00949 | -0.37154 | 4235 ft | 247 kts | 292° |
| 2026-05-06 20:26 | 51.01564 | -0.39722 | 3711 ft | 251 kts | 292° |
| 2026-05-06 20:26 | 51.02184 | -0.42334 | 3228 ft | 255 kts | 292° |
| 2026-05-06 20:26 | 51.02800 | -0.44945 | 3005 ft | 248 kts | 292° |
| 2026-05-06 20:27 | 51.03402 | -0.47421 | 2964 ft | 228 kts | 298° |
| 2026-05-06 20:27 | 51.04372 | -0.49142 | 2964 ft | 202 kts | 330° |
| 2026-05-06 20:27 | 51.05578 | -0.49987 | 2983 ft | 182 kts | 340° |
| 2026-05-06 20:27 | 51.06747 | -0.50681 | 2986 ft | 178 kts | 341° |
| 2026-05-06 20:28 | 51.07760 | -0.50946 | 2981 ft | 178 kts | 1° |
| 2026-05-06 20:28 | 51.09009 | -0.50796 | 2988 ft | 180 kts | 11° |
| 2026-05-06 20:28 | 51.10055 | -0.49806 | 2985 ft | 179 kts | 52° |
| 2026-05-06 20:28 | 51.10546 | -0.47961 | 3006 ft | 183 kts | 69° |
| 2026-05-06 20:29 | 51.10959 | -0.46053 | 2987 ft | 183 kts | 70° |
| 2026-05-06 20:29 | 51.11305 | -0.44095 | 3000 ft | 183 kts | 74° |
| 2026-05-06 20:29 | 51.11587 | -0.42183 | 2986 ft | 172 kts | 75° |
| 2026-05-06 20:29 | 51.11843 | -0.40365 | 2796 ft | 165 kts | 75° |
| 2026-05-06 20:30 | 51.12087 | -0.38611 | 2571 ft | 160 kts | 75° |
| 2026-05-06 20:30 | 51.12570 | -0.35151 | 2143 ft | 161 kts | 75° |
| 2026-05-06 20:30 | 51.12809 | -0.33433 | 1908 ft | 156 kts | 75° |
| 2026-05-06 20:31 | 51.13042 | -0.31764 | 1699 ft | 153 kts | 74° |
| 2026-05-06 20:31 | 51.13272 | -0.30119 | 1496 ft | 152 kts | 75° |
| 2026-05-06 20:31 | 51.13426 | -0.29016 | 1361 ft | 153 kts | 75° |
| 2026-05-06 20:31 | 51.13489 | -0.28564 | 1310 ft | 154 kts | 75° |
| 2026-05-06 20:32 | 51.13715 | -0.26910 | 1074 ft | 151 kts | 76° |
| 2026-05-06 20:32 | 51.13954 | -0.25289 | 841 ft | 151 kts | 76° |
| 2026-05-06 20:32 | 51.14169 | -0.23683 | 646 ft | 150 kts | 77° |
| 2026-05-06 20:32 | 51.14393 | -0.22073 | 428 ft | 148 kts | 77° |
| 2026-05-06 20:33 | 51.14618 | -0.20471 | 235 ft | 148 kts | 78° |
| 2026-05-06 20:33 | 51.14819 | -0.19017 | 219 ft | 112 kts | 78° |
| 2026-05-06 20:33 | 51.14946 | -0.18084 | 222 ft | 61 kts | 78° |
| 2026-05-06 20:33 | 51.15012 | -0.17611 | 220 ft | 26 kts | 77° |
| 2026-05-06 20:34 | 51.15031 | -0.17507 | 223 ft | 0 kts | 64° |
| 2026-05-06 20:34 | 51.15044 | -0.17460 | 223 ft | 18 kts | 65° |
| 2026-05-06 20:34 | 51.15136 | -0.17232 | 219 ft | 16 kts | 12° |
| 2026-05-06 20:34 | 51.15169 | -0.17245 | 222 ft | 0 kts | 337° |
| 2026-05-06 20:36 | 51.15170 | -0.17245 | 222 ft | 1 kts | 337° |
| 2026-05-06 20:37 | 51.15181 | -0.17253 | 222 ft | 3 kts | 336° |
| 2026-05-06 20:37 | 51.15203 | -0.17271 | 219 ft | 4 kts | 329° |
| 2026-05-06 20:37 | 51.15231 | -0.17302 | 220 ft | 6 kts | 324° |
| 2026-05-06 20:37 | 51.15269 | -0.17338 | 221 ft | 7 kts | 335° |
| 2026-05-06 20:38 | 51.15277 | -0.17344 | 219 ft | 1 kts | 336° |
| 2026-05-06 20:38 | 51.15279 | -0.17345 | 219 ft | 1 kts | 335° |
| 2026-05-06 20:38 | 51.15284 | -0.17356 | 219 ft | 3 kts | 311° |
| 2026-05-06 20:38 | 51.15299 | -0.17468 | 217 ft | 19 kts | 259° |
| 2026-05-06 20:39 | 51.15268 | -0.17689 | 218 ft | 21 kts | 257° |
| 2026-05-06 20:39 | 51.15238 | -0.17911 | 215 ft | 21 kts | 258° |
| 2026-05-06 20:39 | 51.15235 | -0.18067 | 222 ft | 0 kts | 307° |
| 2026-05-06 20:40 | 51.15236 | -0.18069 | 221 ft | 2 kts | 307° |
| 2026-05-06 20:40 | 51.15333 | -0.18132 | 217 ft | 29 kts | 347° |
| 2026-05-06 20:40 | 51.15443 | -0.18136 | 222 ft | 11 kts | 33° |
| 2026-05-06 20:41 | 51.15472 | -0.18024 | 216 ft | 11 kts | 73° |
| 2026-05-06 20:41 | 51.15488 | -0.17904 | 217 ft | 11 kts | 80° |
| 2026-05-06 20:41 | 51.15501 | -0.17780 | 214 ft | 11 kts | 79° |
| 2026-05-06 20:41 | 51.15519 | -0.17656 | 220 ft | 11 kts | 77° |
| 2026-05-06 20:42 | 51.15536 | -0.17536 | 217 ft | 11 kts | 77° |
| 2026-05-06 20:42 | 51.15578 | -0.17429 | 221 ft | 11 kts | 58° |
| 2026-05-06 20:42 | 51.15605 | -0.17310 | 218 ft | 11 kts | 72° |
| 2026-05-06 20:42 | 51.15624 | -0.17187 | 218 ft | 11 kts | 77° |
| 2026-05-06 20:43 | 51.15642 | -0.17063 | 211 ft | 11 kts | 77° |
| 2026-05-06 20:43 | 51.15659 | -0.16939 | 215 ft | 11 kts | 77° |
| 2026-05-06 20:43 | 51.15676 | -0.16815 | 216 ft | 11 kts | 77° |
| 2026-05-06 20:43 | 51.15720 | -0.16746 | 217 ft | 9 kts | 4° |
| 2026-05-06 20:44 | 51.15763 | -0.16754 | 211 ft | 0 kts | 350° |